createdAt,value
2023-02-03T00:01:06.101Z,-3.56
2023-02-03T00:03:33.772Z,-3.54
2023-02-03T00:06:03.877Z,-3.52
2023-02-03T00:08:32.100Z,-3.53
2023-02-03T00:11:00.434Z,-3.55
2023-02-03T00:13:28.022Z,-3.50
2023-02-03T00:15:55.512Z,-3.53
2023-02-03T00:18:23.040Z,-3.51
2023-02-03T00:20:50.473Z,-3.53
2023-02-03T00:23:18.036Z,-3.53
2023-02-03T00:25:45.672Z,-3.48
2023-02-03T00:28:13.193Z,-3.48
2023-02-03T00:30:40.895Z,-3.48
2023-02-03T00:33:08.470Z,-3.48
2023-02-03T00:35:39.848Z,-3.41
2023-02-03T00:38:07.411Z,-3.47
2023-02-03T00:40:35.463Z,-3.46
2023-02-03T00:43:03.019Z,-3.48
2023-02-03T00:45:30.646Z,-3.42
2023-02-03T00:47:58.283Z,-3.45
2023-02-03T00:50:26.023Z,-3.47
2023-02-03T00:52:53.611Z,-3.43
2023-02-03T00:55:21.140Z,-3.43
2023-02-03T00:57:48.689Z,-3.43
2023-02-03T01:00:16.733Z,-3.45
2023-02-03T01:02:44.403Z,-3.48
2023-02-03T01:05:12.455Z,-3.48
2023-02-03T01:07:40.019Z,-3.53
2023-02-03T01:10:08.047Z,-3.54
2023-02-03T01:12:35.609Z,-3.57
2023-02-03T01:15:03.138Z,-3.58
2023-02-03T01:17:31.735Z,-3.66
2023-02-03T01:19:59.460Z,-3.68
2023-02-03T01:22:32.338Z,-3.63
2023-02-03T01:24:59.856Z,-3.72
2023-02-03T01:27:27.460Z,-3.72
2023-02-03T01:29:57.014Z,-3.73
2023-02-03T01:32:24.640Z,-3.69
2023-02-03T01:34:52.147Z,-3.68
2023-02-03T01:37:19.724Z,-3.67
2023-02-03T01:39:48.194Z,-3.65
2023-02-03T01:42:34.534Z,-3.54
2023-02-03T01:45:02.266Z,-3.62
2023-02-03T01:47:36.918Z,-3.56
2023-02-03T01:50:14.216Z,-3.47
2023-02-03T01:52:44.388Z,-3.46
2023-02-03T01:55:17.779Z,-3.42
2023-02-03T01:57:54.541Z,-3.42
2023-02-03T02:00:22.443Z,-3.40
2023-02-03T02:02:50.827Z,-3.41
2023-02-03T02:05:48.713Z,-3.28
2023-02-03T02:08:18.703Z,-3.36
2023-02-03T02:10:46.393Z,-3.37
2023-02-03T02:13:16.081Z,-3.35
2023-02-03T02:16:11.291Z,-3.23
2023-02-03T02:18:42.269Z,-3.32
2023-02-03T02:21:31.400Z,-3.28
2023-02-03T02:24:23.330Z,-3.23
2023-02-03T02:27:03.070Z,-3.22
2023-02-03T02:30:05.932Z,-3.17
2023-02-03T02:32:48.979Z,-3.23
2023-02-03T02:35:21.107Z,-3.23
2023-02-03T02:38:13.115Z,-3.20
2023-02-03T02:41:00.738Z,-3.23
2023-02-03T02:43:28.361Z,-3.22
2023-02-03T02:46:31.230Z,-3.14
2023-02-03T02:49:21.988Z,-3.16
2023-02-03T02:51:53.663Z,-3.22
2023-02-03T02:54:25.706Z,-3.20
2023-02-03T02:56:58.318Z,-3.21
2023-02-03T02:59:28.245Z,-3.23
2023-02-03T03:01:55.902Z,-3.23
2023-02-03T03:04:26.913Z,-3.20
2023-02-03T03:07:08.814Z,-3.09
2023-02-03T03:09:43.284Z,-3.16
2023-02-03T03:12:16.774Z,-3.03
2023-02-03T03:14:49.517Z,-3.13
2023-02-03T03:17:24.538Z,-3.16
2023-02-03T03:19:56.610Z,-3.08
2023-02-03T03:22:37.132Z,-3.01
2023-02-03T03:25:15.191Z,-2.97
2023-02-03T03:28:05.347Z,-2.97
2023-02-03T03:30:38.165Z,-3.00
2023-02-03T03:33:08.101Z,-2.95
2023-02-03T03:35:59.699Z,-2.90
2023-02-03T03:38:36.783Z,-2.87
2023-02-03T03:41:16.204Z,-2.87
2023-02-03T03:43:47.605Z,-2.86
2023-02-03T03:46:22.145Z,-2.85
2023-02-03T03:49:01.186Z,-2.86
2023-02-03T03:51:37.507Z,-2.80
2023-02-03T03:54:09.757Z,-2.80
2023-02-03T03:56:45.472Z,-2.79
2023-02-03T03:59:17.529Z,-2.74
2023-02-03T04:01:45.859Z,-2.73
2023-02-03T04:04:15.334Z,-2.70
2023-02-03T04:06:42.917Z,-2.68
2023-02-03T04:09:10.607Z,-2.59
2023-02-03T04:11:56.378Z,-2.51
2023-02-03T04:14:23.895Z,-2.38
2023-02-03T04:16:51.447Z,-2.30
2023-02-03T04:19:18.829Z,-2.22
2023-02-03T04:21:46.374Z,-2.16
2023-02-03T04:24:14.457Z,-2.15
2023-02-03T04:26:41.965Z,-2.14
2023-02-03T04:29:09.834Z,-2.17
2023-02-03T04:31:38.894Z,-2.19
2023-02-03T04:34:06.854Z,-2.18
2023-02-03T04:36:34.529Z,-2.16
2023-02-03T04:39:02.087Z,-2.15
2023-02-03T04:41:29.820Z,-2.09
2023-02-03T04:43:57.545Z,-2.01
2023-02-03T04:46:25.066Z,-1.96
2023-02-03T04:48:52.560Z,-1.98
2023-02-03T04:51:22.245Z,-1.97
2023-02-03T04:53:52.451Z,-1.92
2023-02-03T04:56:19.947Z,-1.92
2023-02-03T04:58:47.477Z,-1.89
2023-02-03T05:01:14.985Z,-1.88
2023-02-03T05:03:42.622Z,-1.91
2023-02-03T05:06:10.204Z,-1.88
2023-02-03T05:08:37.708Z,-1.90
2023-02-03T05:11:06.651Z,-1.86
2023-02-03T05:13:34.500Z,-1.82
2023-02-03T05:16:02.176Z,-1.80
2023-02-03T05:18:29.828Z,-1.76
2023-02-03T05:20:57.487Z,-1.70
2023-02-03T05:23:25.137Z,-1.68
2023-02-03T05:25:52.657Z,-1.57
2023-02-03T05:28:20.273Z,-1.50
2023-02-03T05:30:47.794Z,-1.44
2023-02-03T05:33:15.703Z,-1.38
2023-02-03T05:35:43.433Z,-1.33
2023-02-03T05:38:10.909Z,-1.29
2023-02-03T05:40:57.025Z,-1.26
2023-02-03T05:43:24.522Z,-1.20
2023-02-03T05:45:52.068Z,-1.15
2023-02-03T05:48:19.634Z,-1.13
2023-02-03T05:50:47.146Z,-1.09
2023-02-03T05:53:14.880Z,-1.02
2023-02-03T05:55:42.421Z,-0.97
2023-02-03T05:58:10.035Z,-0.83
2023-02-03T06:00:37.787Z,-0.74
2023-02-03T06:03:05.890Z,-0.66
2023-02-03T06:05:35.158Z,-0.56
2023-02-03T06:08:02.698Z,-0.50
2023-02-03T06:10:30.337Z,-0.45
2023-02-03T06:12:57.955Z,-0.31
2023-02-03T06:15:25.847Z,-0.21
2023-02-03T06:17:53.308Z,-0.19
2023-02-03T06:20:21.359Z,-0.10
2023-02-03T06:22:48.903Z,-0.07
2023-02-03T06:25:16.545Z,-0.07
2023-02-03T06:27:44.120Z,0.03
2023-02-03T06:30:12.404Z,0.07
2023-02-03T06:32:39.889Z,0.13
2023-02-03T06:35:07.749Z,0.20
2023-02-03T06:37:38.823Z,0.24
2023-02-03T06:40:06.948Z,0.38
2023-02-03T06:42:34.507Z,0.48
2023-02-03T06:45:02.025Z,0.65
2023-02-03T06:47:31.462Z,0.75
2023-02-03T06:49:58.991Z,0.89
2023-02-03T06:52:26.681Z,0.95
2023-02-03T06:54:54.210Z,1.13
2023-02-03T06:57:21.743Z,1.49
2023-02-03T06:59:49.255Z,1.88
2023-02-03T07:02:17.218Z,2.31
2023-02-03T07:04:45.424Z,2.76
2023-02-03T07:07:13.485Z,3.22
2023-02-03T07:09:41.596Z,3.71
2023-02-03T07:12:10.405Z,4.16
2023-02-03T07:14:39.634Z,4.68
2023-02-03T07:17:09.120Z,5.12
2023-02-03T07:19:36.602Z,5.55
2023-02-03T07:22:05.164Z,5.93
2023-02-03T07:25:18.570Z,6.15
2023-02-03T07:27:52.344Z,6.61
2023-02-03T07:30:20.351Z,7.03
2023-02-03T07:32:51.903Z,7.19
2023-02-03T07:35:20.531Z,7.46
2023-02-03T07:37:48.090Z,7.72
2023-02-03T07:40:25.497Z,7.87
2023-02-03T07:42:56.133Z,8.05
2023-02-03T07:45:25.139Z,8.21
2023-02-03T07:47:52.598Z,8.30
2023-02-03T07:50:20.144Z,8.46
2023-02-03T07:52:47.558Z,8.56
2023-02-03T07:55:15.013Z,8.72
2023-02-03T07:57:46.711Z,8.78
2023-02-03T08:00:16.444Z,8.86
2023-02-03T08:02:44.393Z,8.90
2023-02-03T08:05:13.011Z,8.90
2023-02-03T08:07:41.543Z,8.87
2023-02-03T08:10:13.602Z,8.80
2023-02-03T08:12:46.865Z,8.78
2023-02-03T08:15:15.205Z,8.61
2023-02-03T08:17:43.338Z,8.36
2023-02-03T08:20:13.114Z,8.27
2023-02-03T08:22:40.650Z,8.09
2023-02-03T08:25:09.174Z,7.94
2023-02-03T08:27:36.878Z,7.80
2023-02-03T08:30:04.967Z,7.75
2023-02-03T08:32:34.060Z,7.66
2023-02-03T08:35:01.673Z,7.48
2023-02-03T08:37:32.065Z,7.30
2023-02-03T08:40:00.583Z,7.11
2023-02-03T08:42:28.373Z,6.94
2023-02-03T08:44:56.101Z,6.81
2023-02-03T08:47:23.881Z,6.69
2023-02-03T08:49:51.436Z,6.56
2023-02-03T08:52:19.391Z,6.46
2023-02-03T08:54:47.618Z,6.40
2023-02-03T08:57:15.691Z,6.33
2023-02-03T08:59:44.379Z,6.24
2023-02-03T09:02:16.912Z,6.15
2023-02-03T09:04:45.405Z,5.82
2023-02-03T09:07:15.747Z,5.72
2023-02-03T09:09:43.939Z,5.46
2023-02-03T09:12:13.281Z,5.27
2023-02-03T09:14:43.765Z,5.28
2023-02-03T09:17:13.174Z,5.20
2023-02-03T09:19:40.748Z,5.00
2023-02-03T09:22:08.347Z,5.00
2023-02-03T09:24:36.762Z,5.07
2023-02-03T09:27:04.452Z,4.97
2023-02-03T09:29:34.363Z,4.91
2023-02-03T09:32:07.281Z,4.80
2023-02-03T09:34:34.969Z,4.76
2023-02-03T09:37:02.655Z,4.74
2023-02-03T09:39:30.479Z,4.72
2023-02-03T09:42:09.438Z,4.69
2023-02-03T09:44:55.141Z,4.76
2023-02-03T09:47:29.145Z,4.68
2023-02-03T09:50:02.801Z,4.67
2023-02-03T09:52:42.287Z,4.69
2023-02-03T09:55:54.282Z,4.61
2023-02-03T09:58:26.348Z,4.45
2023-02-03T10:00:58.469Z,4.34
2023-02-03T10:03:46.474Z,4.36
2023-02-03T10:06:32.297Z,4.36
2023-02-03T10:09:18.964Z,4.20
2023-02-03T10:12:05.160Z,4.03
2023-02-03T10:15:03.471Z,4.15
2023-02-03T10:17:36.764Z,4.00
2023-02-03T10:20:22.583Z,4.02
2023-02-03T10:22:57.527Z,3.86
2023-02-03T10:25:28.815Z,3.77
2023-02-03T10:28:01.693Z,3.64
2023-02-03T10:30:38.580Z,3.69
2023-02-03T10:33:18.340Z,3.66
2023-02-03T10:36:15.595Z,3.62
2023-02-03T10:38:45.921Z,3.35
2023-02-03T10:41:15.170Z,3.24
2023-02-03T10:43:48.903Z,3.20
2023-02-03T10:46:20.900Z,3.20
2023-02-03T10:48:52.000Z,3.03
2023-02-03T10:51:21.403Z,2.92
2023-02-03T10:53:55.731Z,2.84
2023-02-03T10:56:31.047Z,2.96
2023-02-03T10:59:00.788Z,2.79
2023-02-03T11:01:44.154Z,2.72
2023-02-03T11:04:28.497Z,2.83
2023-02-03T11:07:06.479Z,2.70
2023-02-03T11:09:37.851Z,2.48
2023-02-03T11:12:17.153Z,2.58
2023-02-03T11:14:54.784Z,2.60
2023-02-03T11:17:27.403Z,2.49
2023-02-03T11:20:07.569Z,2.38
2023-02-03T11:22:38.802Z,2.36
2023-02-03T11:25:24.818Z,2.20
2023-02-03T11:27:56.157Z,2.11
2023-02-03T11:30:27.181Z,2.00
2023-02-03T11:32:55.207Z,1.96
2023-02-03T11:35:29.381Z,1.96
2023-02-03T11:38:03.271Z,1.96
2023-02-03T11:40:34.661Z,1.70
2023-02-03T11:43:06.155Z,1.75
2023-02-03T11:45:43.723Z,1.74
2023-02-03T11:48:11.155Z,1.60
2023-02-03T11:50:54.407Z,1.63
2023-02-03T11:53:56.873Z,1.74
2023-02-03T11:56:52.707Z,1.70
2023-02-03T11:59:43.298Z,1.48
2023-02-03T12:02:48.631Z,1.53
2023-02-03T12:05:28.436Z,1.46
2023-02-03T12:08:10.108Z,1.41
2023-02-03T12:10:51.619Z,1.30
2023-02-03T12:13:21.715Z,1.19
2023-02-03T12:16:22.022Z,1.24
2023-02-03T12:19:11.572Z,1.17
2023-02-03T12:22:29.420Z,1.03
2023-02-03T12:25:18.549Z,1.00
2023-02-03T12:27:57.200Z,0.72
2023-02-03T12:30:47.103Z,0.56
2023-02-03T12:33:28.099Z,0.39
2023-02-03T12:36:04.658Z,0.28
2023-02-03T12:38:44.141Z,0.29
2023-02-03T12:41:21.145Z,0.15
2023-02-03T12:43:52.920Z,0.07
2023-02-03T12:46:32.627Z,0.06
2023-02-03T12:49:12.373Z,-0.11
2023-02-03T12:51:47.088Z,-0.22
2023-02-03T12:54:26.101Z,-0.41
2023-02-03T12:57:01.263Z,-0.87
2023-02-03T12:59:33.159Z,-0.77
2023-02-03T13:02:18.278Z,-0.75
2023-02-03T13:04:56.736Z,-0.80
2023-02-03T13:07:30.222Z,-0.91
2023-02-03T13:10:04.133Z,-0.74
2023-02-03T13:12:36.493Z,-0.47
2023-02-03T13:15:28.523Z,-0.52
2023-02-03T13:18:05.562Z,-0.64
2023-02-03T13:20:39.373Z,-0.70
2023-02-03T13:23:11.678Z,-0.43
2023-02-03T13:25:54.179Z,-0.55
2023-02-03T13:28:33.626Z,-0.56
2023-02-03T13:31:37.200Z,-0.56
2023-02-03T13:34:29.285Z,-0.57
2023-02-03T13:37:13.243Z,-0.57
2023-02-03T13:39:54.900Z,-0.76
2023-02-03T13:42:22.894Z,-0.84
2023-02-03T13:45:13.574Z,-0.87
2023-02-03T13:47:48.496Z,-0.75
2023-02-03T13:50:30.041Z,-0.68
2023-02-03T13:53:03.087Z,-0.75
2023-02-03T13:55:39.553Z,-0.72
2023-02-03T13:58:29.233Z,-0.65
2023-02-03T14:00:56.889Z,-0.81
2023-02-03T14:03:27.437Z,-0.79
2023-02-03T14:06:01.318Z,-0.92
2023-02-03T14:08:28.769Z,-0.71
2023-02-03T14:11:33.692Z,-0.76
2023-02-03T14:14:10.308Z,-0.80
2023-02-03T14:16:42.226Z,-0.93
2023-02-03T14:19:33.596Z,-0.98
2023-02-03T14:22:18.068Z,-0.93
2023-02-03T14:24:50.011Z,-1.05
2023-02-03T14:27:29.334Z,-1.11
2023-02-03T14:30:19.900Z,-1.17
2023-02-03T14:32:58.445Z,-1.18
2023-02-03T14:35:37.913Z,-1.16
2023-02-03T14:38:14.966Z,-1.25
2023-02-03T14:40:56.017Z,-1.19
2023-02-03T14:43:50.559Z,-1.17
2023-02-03T14:46:54.904Z,-1.17
2023-02-03T14:49:51.774Z,-1.28
2023-02-03T14:53:23.700Z,-1.42
2023-02-03T14:56:17.278Z,-1.35
2023-02-03T14:59:02.516Z,-1.29
2023-02-03T15:01:36.252Z,-1.33
2023-02-03T15:04:12.897Z,-1.37
2023-02-03T15:06:46.418Z,-1.40
2023-02-03T15:09:23.446Z,-1.39
2023-02-03T15:11:51.273Z,-1.60
2023-02-03T15:14:25.313Z,-1.59
2023-02-03T15:17:01.736Z,-1.77
2023-02-03T15:19:49.622Z,-1.86
2023-02-03T15:22:26.684Z,-1.90
2023-02-03T15:24:58.187Z,-2.14
2023-02-03T15:27:28.359Z,-2.08
2023-02-03T15:29:59.604Z,-2.01
2023-02-03T15:32:30.642Z,-1.96
2023-02-03T15:34:59.486Z,-1.92
2023-02-03T15:37:37.744Z,-1.86
2023-02-03T15:40:16.798Z,-1.88
2023-02-03T15:43:05.897Z,-1.92
2023-02-03T15:45:35.720Z,-1.97
2023-02-03T15:48:37.172Z,-1.84
2023-02-03T15:51:12.217Z,-1.83
2023-02-03T15:54:01.479Z,-1.83
2023-02-03T15:56:44.779Z,-1.93
2023-02-03T15:59:35.045Z,-1.88
2023-02-03T16:02:27.375Z,-1.92
2023-02-03T16:04:55.426Z,-1.98
2023-02-03T16:07:29.593Z,-2.10
2023-02-03T16:09:58.764Z,-2.07
2023-02-03T16:12:28.894Z,-2.21
2023-02-03T16:14:57.928Z,-2.39
2023-02-03T16:17:33.353Z,-2.31
2023-02-03T16:20:13.044Z,-2.10
2023-02-03T16:22:40.544Z,-2.13
2023-02-03T16:25:23.316Z,-1.97
2023-02-03T16:28:39.948Z,-1.95
2023-02-03T16:31:36.697Z,-1.94
2023-02-03T16:34:33.551Z,-1.90
2023-02-03T16:37:19.396Z,-2.09
2023-02-03T16:40:05.705Z,-2.05
2023-02-03T16:42:59.810Z,-2.02
2023-02-03T16:45:45.965Z,-2.29
2023-02-03T16:48:32.360Z,-2.12
2023-02-03T16:51:07.300Z,-2.03
2023-02-03T16:53:35.184Z,-2.15
2023-02-03T16:56:07.257Z,-2.16
2023-02-03T16:58:35.109Z,-2.24
2023-02-03T17:01:05.781Z,-2.25
2023-02-03T17:03:35.799Z,-2.38
2023-02-03T17:06:06.897Z,-2.32
2023-02-03T17:08:35.346Z,-2.33
2023-02-03T17:11:05.952Z,-2.32
2023-02-03T17:13:34.122Z,-2.33
2023-02-03T17:16:01.870Z,-2.37
2023-02-03T17:18:29.544Z,-2.46
2023-02-03T17:21:05.865Z,-2.58
2023-02-03T17:23:33.589Z,-2.60
2023-02-03T17:26:01.417Z,-2.59
2023-02-03T17:28:29.286Z,-2.66
2023-02-03T17:31:06.020Z,-2.66
2023-02-03T17:33:35.324Z,-2.63
2023-02-03T17:36:07.973Z,-2.60
2023-02-03T17:55:15.864Z,-3.55
2023-02-03T17:57:43.689Z,-3.62
2023-02-03T18:00:11.921Z,-3.51
2023-02-03T18:02:43.527Z,-3.46
2023-02-03T18:05:11.473Z,-3.64
2023-02-03T18:07:39.042Z,-3.63
2023-02-03T18:10:06.778Z,-3.53
2023-02-03T18:12:34.519Z,-3.53
2023-02-03T18:15:02.249Z,-3.53
2023-02-03T18:17:31.095Z,-3.54
2023-02-03T18:20:00.898Z,-3.56
2023-02-03T18:22:28.787Z,-3.64
2023-02-03T18:24:56.424Z,-3.65
2023-02-03T18:27:23.963Z,-3.65
2023-02-03T18:29:51.566Z,-3.62
2023-02-03T18:32:20.250Z,-3.56
2023-02-03T18:34:47.999Z,-3.54
2023-02-03T18:37:15.781Z,-3.49
2023-02-03T18:39:43.339Z,-3.45
2023-02-03T18:42:11.226Z,-3.44
2023-02-03T18:44:39.910Z,-3.27
2023-02-03T18:47:08.081Z,-3.28
2023-02-03T18:49:45.399Z,-3.29
2023-02-03T18:52:12.906Z,-3.24
2023-02-03T18:54:40.461Z,-3.23
2023-02-03T18:57:13.230Z,-3.29
2023-02-03T18:59:40.797Z,-3.25
2023-02-03T19:02:11.252Z,-3.28
2023-02-03T19:04:41.008Z,-3.39
2023-02-03T19:07:08.577Z,-3.40
2023-02-03T19:09:39.944Z,-3.54
2023-02-03T19:12:08.716Z,-3.45
2023-02-03T19:14:36.680Z,-3.77
2023-02-03T19:17:04.870Z,-4.00
2023-02-03T19:19:32.354Z,-4.11
2023-02-03T19:21:59.983Z,-4.04
2023-02-03T19:24:27.582Z,-4.01
2023-02-03T19:26:55.623Z,-3.96
2023-02-03T19:29:23.117Z,-3.88
2023-02-03T19:31:51.020Z,-3.90
2023-02-03T19:34:18.889Z,-3.88
2023-02-03T19:36:47.414Z,-3.84
2023-02-03T19:39:15.549Z,-3.89
2023-02-03T19:41:43.156Z,-3.85
2023-02-03T19:44:10.721Z,-3.85
2023-02-03T19:46:38.497Z,-3.75
2023-02-03T19:49:13.509Z,-3.63
2023-02-03T19:51:42.795Z,-3.66
2023-02-03T19:54:15.820Z,-3.91
2023-02-03T19:56:44.985Z,-3.68
2023-02-03T19:59:12.978Z,-3.67
2023-02-03T20:01:40.650Z,-3.69
2023-02-03T20:04:08.281Z,-3.68
2023-02-03T20:06:36.329Z,-3.61
2023-02-03T20:09:06.397Z,-3.61
2023-02-03T20:11:38.391Z,-3.60
2023-02-03T20:14:14.140Z,-3.80
2023-02-03T20:16:43.052Z,-3.63
2023-02-03T20:19:10.844Z,-3.64
2023-02-03T20:21:38.539Z,-3.71
2023-02-03T20:24:06.015Z,-3.66
2023-02-03T20:26:33.594Z,-3.70
2023-02-03T20:29:01.156Z,-3.73
2023-02-03T20:31:29.006Z,-3.75
2023-02-03T20:33:56.676Z,-3.74
2023-02-03T20:36:24.334Z,-3.75
2023-02-03T20:38:52.157Z,-3.80
2023-02-03T20:41:19.983Z,-3.79
2023-02-03T20:43:48.297Z,-3.72
2023-02-03T20:46:18.998Z,-3.78
2023-02-03T20:48:46.596Z,-3.89
2023-02-03T20:51:16.128Z,-3.86
2023-02-03T20:53:44.640Z,-3.93
2023-02-03T20:56:18.446Z,-3.93
2023-02-03T20:58:46.204Z,-4.08
2023-02-03T21:01:22.116Z,-4.06
2023-02-03T21:04:07.971Z,-4.27
2023-02-03T21:06:36.167Z,-4.25
2023-02-03T21:09:18.432Z,-4.40
2023-02-03T21:11:46.077Z,-4.33
2023-02-03T21:14:23.986Z,-4.19
2023-02-03T21:16:54.325Z,-4.23
2023-02-03T21:19:33.829Z,-4.16
2023-02-03T21:22:17.697Z,-4.20
2023-02-03T21:24:59.189Z,-4.31
2023-02-03T21:27:32.528Z,-4.35
2023-02-03T21:30:02.613Z,-4.55
2023-02-03T21:32:40.472Z,-4.54
2023-02-03T21:35:31.195Z,-4.55
2023-02-03T21:38:04.304Z,-4.81
2023-02-03T21:40:34.674Z,-4.86
2023-02-03T21:43:03.536Z,-4.89
2023-02-03T21:45:42.358Z,-4.73
2023-02-03T21:48:29.675Z,-4.69
2023-02-03T21:51:01.546Z,-4.72
2023-02-03T21:53:33.409Z,-4.65
2023-02-03T21:56:25.178Z,-4.50
2023-02-03T21:58:57.690Z,-4.59
2023-02-03T22:01:27.010Z,-4.57
2023-02-03T22:03:56.206Z,-4.52
2023-02-03T22:06:26.538Z,-4.54
2023-02-03T22:08:56.888Z,-4.46
2023-02-03T22:11:27.878Z,-4.45
2023-02-03T22:13:55.945Z,-4.40
2023-02-03T22:16:24.144Z,-4.48
2023-02-03T22:18:52.395Z,-4.40
2023-02-03T22:21:20.058Z,-4.41
2023-02-03T22:23:48.456Z,-4.35
2023-02-03T22:26:17.607Z,-4.36
2023-02-03T22:28:45.534Z,-4.35
2023-02-03T22:31:13.838Z,-4.41
2023-02-03T22:33:42.393Z,-4.31
2023-02-03T22:36:11.037Z,-4.29
2023-02-03T22:38:40.159Z,-4.29
2023-02-03T22:41:09.538Z,-4.26
2023-02-03T22:43:37.156Z,-4.26
2023-02-03T22:46:07.070Z,-4.49
2023-02-03T22:48:34.784Z,-4.25
2023-02-03T22:51:02.315Z,-4.27
2023-02-03T22:53:29.940Z,-4.27
2023-02-03T22:55:57.499Z,-4.25
2023-02-03T22:58:25.018Z,-4.25
2023-02-03T23:00:52.480Z,-4.25
2023-02-03T23:03:20.062Z,-4.25
2023-02-03T23:05:47.618Z,-4.25
2023-02-03T23:08:15.114Z,-4.20
2023-02-03T23:10:42.620Z,-4.19
2023-02-03T23:13:10.186Z,-4.16
2023-02-03T23:15:37.989Z,-4.12
2023-02-03T23:18:06.025Z,-4.09
2023-02-03T23:20:33.879Z,-4.07
2023-02-03T23:23:01.373Z,-4.07
2023-02-03T23:25:28.927Z,-4.09
2023-02-03T23:27:56.610Z,-4.02
2023-02-03T23:30:24.271Z,-4.00
2023-02-03T23:32:51.759Z,-3.98
2023-02-03T23:35:37.692Z,-3.95
2023-02-03T23:38:05.257Z,-3.92
2023-02-03T23:40:33.180Z,-3.92
2023-02-03T23:43:00.918Z,-3.93
2023-02-03T23:45:28.521Z,-3.94
2023-02-03T23:47:56.110Z,-3.92
2023-02-03T23:50:23.790Z,-3.92
2023-02-03T23:52:51.349Z,-3.97
2023-02-03T23:55:21.327Z,-3.99
2023-02-03T23:57:48.908Z,-3.98
